Time;durP1;ratioP1;P1;durP2;ratioP2;P2;SDS_P1;SDS_P2;PMS_P1;PMS_P2;Temp;Humidity;BMP_temperature;BMP_pressure;BME280_temperature;BME280_humidity;BME280_pressure;Samples;Min_cycle;Max_cycle;Signal;HPM_P1;HPM_P2
2021/06/09 00:01:35;;;;;;;9.30;8.40;;;;;;;;;;5000473;28;20488;-59
2021/06/09 00:04:01;;;;;;;10.25;9.25;;;;;;;;;;5000195;28;20418;-60
2021/06/09 00:06:27;;;;;;;9.35;8.43;;;;;;;;;;5008664;28;20514;-59
2021/06/09 00:08:52;;;;;;;10.73;8.57;;;;;;;;;;5009073;28;20034;-60
2021/06/09 00:11:17;;;;;;;9.20;8.38;;;;;;;;;;5008149;28;20026;-60
2021/06/09 00:13:44;;;;;;;9.13;7.88;;;;;;;;;;4996996;28;20580;-56
2021/06/09 00:16:11;;;;;;;10.80;8.15;;;;;;;;;;4998420;28;20099;-56
2021/06/09 00:18:37;;;;;;;11.00;7.97;;;;;;;;;;5008107;28;20022;-55
2021/06/09 00:21:02;;;;;;;9.85;8.85;;;;;;;;;;5008991;28;20124;-55
2021/06/09 00:23:30;;;;;;;11.02;8.75;;;;;;;;;;5007890;28;20069;-61
2021/06/09 00:25:56;;;;;;;9.55;7.30;;;;;;;;;;5008240;28;20026;-59
2021/06/09 00:28:22;;;;;;;9.27;8.48;;;;;;;;;;5008259;28;20029;-62
2021/06/09 00:30:47;;;;;;;9.73;8.00;;;;;;;;;;5016406;28;20546;-59
2021/06/09 00:33:13;;;;;;;10.35;8.48;;;;;;;;;;5007416;28;20038;-55
2021/06/09 00:35:38;;;;;;;10.15;8.35;;;;;;;;;;5008689;28;20026;-61
2021/06/09 00:38:04;;;;;;;9.43;8.25;;;;;;;;;;5008310;28;20554;-58
2021/06/09 00:40:30;;;;;;;11.30;8.32;;;;;;;;;;5009067;28;20052;-55
2021/06/09 00:43:05;;;;;;;10.63;8.10;;;;;;;;;;5008701;28;20029;-56
2021/06/09 00:45:31;;;;;;;9.07;8.10;;;;;;;;;;5008287;28;20108;-60
2021/06/09 00:47:56;;;;;;;9.38;8.38;;;;;;;;;;5006703;28;20435;-59
2021/06/09 00:50:22;;;;;;;8.77;7.97;;;;;;;;;;5008810;28;20108;-60
2021/06/09 00:52:47;;;;;;;9.63;8.43;;;;;;;;;;5007720;28;20021;-60
2021/06/09 00:55:13;;;;;;;10.02;8.43;;;;;;;;;;5007884;28;20382;-58
2021/06/09 00:57:39;;;;;;;9.55;8.50;;;;;;;;;;5000276;28;20544;-58
2021/06/09 01:00:09;;;;;;;14.52;8.18;;;;;;;;;;4991849;28;20022;-57
2021/06/09 01:02:35;;;;;;;9.20;8.30;;;;;;;;;;5006424;28;20137;-56
2021/06/09 01:07:30;;;;;;;9.65;8.00;;;;;;;;;;5003652;28;20452;-60
2021/06/09 01:09:56;;;;;;;9.48;8.40;;;;;;;;;;5007643;28;20041;-59
2021/06/09 01:12:22;;;;;;;9.60;8.05;;;;;;;;;;5007783;28;20068;-59
2021/06/09 01:14:47;;;;;;;8.50;7.60;;;;;;;;;;5006583;28;20068;-59
2021/06/09 01:17:12;;;;;;;8.82;7.63;;;;;;;;;;4987189;28;20036;-60
2021/06/09 01:19:38;;;;;;;8.30;7.50;;;;;;;;;;4987921;28;20102;-58
2021/06/09 01:22:03;;;;;;;8.52;7.68;;;;;;;;;;4986638;28;20633;-61
2021/06/09 01:24:28;;;;;;;10.32;7.90;;;;;;;;;;4988030;28;20034;-61
2021/06/09 01:26:54;;;;;;;11.20;8.43;;;;;;;;;;4985313;28;20114;-60
2021/06/09 01:29:19;;;;;;;8.70;7.32;;;;;;;;;;4985556;28;20034;-61
2021/06/09 01:31:45;;;;;;;8.95;7.40;;;;;;;;;;4986673;28;20097;-60
2021/06/09 01:34:10;;;;;;;9.63;7.90;;;;;;;;;;4970407;28;20394;-59
2021/06/09 01:36:37;;;;;;;8.32;7.53;;;;;;;;;;4985096;28;20088;-60
2021/06/09 01:39:07;;;;;;;8.63;7.25;;;;;;;;;;4988761;28;20037;-60
2021/06/09 01:41:32;;;;;;;9.43;7.87;;;;;;;;;;4990593;28;20044;-61
2021/06/09 01:43:58;;;;;;;8.90;8.00;;;;;;;;;;4983059;28;20278;-61
2021/06/09 01:46:23;;;;;;;8.75;7.95;;;;;;;;;;4990780;28;20546;-60
2021/06/09 01:48:49;;;;;;;10.40;8.23;;;;;;;;;;4991553;28;20080;-61
2021/06/09 01:51:14;;;;;;;9.40;7.75;;;;;;;;;;5008331;28;20029;-60
2021/06/09 01:53:40;;;;;;;8.70;7.80;;;;;;;;;;4981778;28;20108;-60
2021/06/09 01:56:05;;;;;;;9.77;8.00;;;;;;;;;;4991872;28;20105;-61
2021/06/09 01:58:30;;;;;;;8.73;7.85;;;;;;;;;;4989074;28;20348;-60
2021/06/09 02:00:56;;;;;;;8.93;8.02;;;;;;;;;;4990817;28;20065;-60
2021/06/09 02:03:21;;;;;;;10.25;7.78;;;;;;;;;;4990037;28;20034;-59
2021/06/09 02:05:46;;;;;;;9.60;8.55;;;;;;;;;;4973821;28;20091;-60
2021/06/09 02:08:13;;;;;;;8.73;7.82;;;;;;;;;;4989698;28;20031;-60
2021/06/09 02:10:38;;;;;;;8.55;7.68;;;;;;;;;;4989636;28;20113;-60
2021/06/09 02:13:05;;;;;;;8.90;8.00;;;;;;;;;;4988610;28;20162;-59
2021/06/09 02:15:31;;;;;;;10.68;8.32;;;;;;;;;;4987421;28;20096;-60
2021/06/09 02:18:12;;;;;;;8.60;7.63;;;;;;;;;;4970455;28;20559;-60
2021/06/09 02:20:45;;;;;;;8.70;7.68;;;;;;;;;;4971577;28;20722;-61
2021/06/09 02:23:12;;;;;;;8.60;7.80;;;;;;;;;;4962953;28;20026;-60
2021/06/09 02:25:40;;;;;;;8.82;7.93;;;;;;;;;;4990043;28;20030;-60
2021/06/09 02:28:05;;;;;;;8.90;7.97;;;;;;;;;;4988780;28;20054;-59
2021/06/09 02:30:32;;;;;;;8.90;8.10;;;;;;;;;;4991054;28;20132;-60
2021/06/09 02:32:57;;;;;;;8.43;7.63;;;;;;;;;;4973192;28;20161;-60
2021/06/09 02:35:23;;;;;;;8.88;7.93;;;;;;;;;;4989976;28;20113;-60
2021/06/09 02:37:50;;;;;;;9.10;8.20;;;;;;;;;;4989086;28;20023;-61
2021/06/09 02:40:15;;;;;;;8.90;8.07;;;;;;;;;;4990412;28;20041;-60
2021/06/09 02:42:41;;;;;;;9.10;8.20;;;;;;;;;;4990645;28;20034;-60
2021/06/09 02:45:08;;;;;;;8.98;7.80;;;;;;;;;;4989628;28;20029;-60
2021/06/09 02:47:34;;;;;;;8.73;7.93;;;;;;;;;;4969813;28;20027;-59
2021/06/09 02:49:59;;;;;;;8.30;7.53;;;;;;;;;;4952947;28;20033;-59
2021/06/09 02:52:27;;;;;;;8.63;7.82;;;;;;;;;;4955600;28;20040;-59
2021/06/09 02:55:18;;;;;;;9.23;8.00;;;;;;;;;;4989882;28;20470;-61
2021/06/09 02:57:53;;;;;;;9.40;8.38;;;;;;;;;;4988001;28;20508;-59
2021/06/09 03:00:33;;;;;;;10.00;8.52;;;;;;;;;;4989469;28;20041;-60
2021/06/09 03:03:01;;;;;;;8.98;7.65;;;;;;;;;;4965382;28;20757;-60
2021/06/09 03:05:29;;;;;;;8.40;7.60;;;;;;;;;;4990325;28;20038;-61
2021/06/09 03:07:54;;;;;;;8.30;7.50;;;;;;;;;;5002361;28;20058;-61
2021/06/09 03:10:26;;;;;;;8.55;7.65;;;;;;;;;;5009869;28;20025;-60
2021/06/09 03:13:01;;;;;;;8.73;7.82;;;;;;;;;;4977032;28;20040;-60
2021/06/09 03:15:42;;;;;;;8.80;7.93;;;;;;;;;;4989592;28;20505;-60
2021/06/09 03:18:15;;;;;;;8.55;7.75;;;;;;;;;;4970661;28;20026;-60
2021/06/09 03:20:57;;;;;;;8.20;7.40;;;;;;;;;;4972486;28;20089;-60
2021/06/09 03:23:41;;;;;;;8.77;7.75;;;;;;;;;;4987950;28;20501;-60
2021/06/09 03:26:10;;;;;;;8.68;7.25;;;;;;;;;;4989804;28;20431;-61
2021/06/09 03:28:43;;;;;;;9.27;8.15;;;;;;;;;;4988262;28;20030;-61
2021/06/09 03:31:09;;;;;;;9.20;7.75;;;;;;;;;;4985822;28;20030;-59
2021/06/09 03:33:38;;;;;;;8.65;7.85;;;;;;;;;;4960003;28;20041;-61
2021/06/09 03:36:06;;;;;;;8.38;7.57;;;;;;;;;;4973027;28;20560;-59
2021/06/09 03:38:34;;;;;;;10.75;7.88;;;;;;;;;;4955104;28;20022;-60
2021/06/09 03:41:00;;;;;;;8.82;7.93;;;;;;;;;;4972961;28;20034;-59
2021/06/09 03:43:27;;;;;;;8.75;7.88;;;;;;;;;;4988696;28;20479;-60
2021/06/09 03:45:52;;;;;;;7.95;7.18;;;;;;;;;;4988570;28;20030;-60
2021/06/09 03:48:18;;;;;;;8.88;8.07;;;;;;;;;;4955365;28;20092;-59
2021/06/09 03:50:44;;;;;;;9.52;8.45;;;;;;;;;;4955830;28;20030;-60
2021/06/09 03:53:09;;;;;;;9.05;8.15;;;;;;;;;;4984350;28;20105;-61
2021/06/09 03:55:36;;;;;;;9.18;8.27;;;;;;;;;;4953145;28;20050;-59
2021/06/09 03:58:01;;;;;;;9.15;8.35;;;;;;;;;;4951133;28;20534;-60
2021/06/09 04:00:28;;;;;;;9.25;8.30;;;;;;;;;;4974675;28;20117;-60
2021/06/09 04:02:53;;;;;;;9.25;8.35;;;;;;;;;;4970049;28;20049;-61
2021/06/09 04:05:19;;;;;;;8.52;7.72;;;;;;;;;;4988859;28;20463;-60
2021/06/09 04:07:44;;;;;;;9.00;8.10;;;;;;;;;;4986859;28;20022;-60
2021/06/09 04:10:10;;;;;;;8.57;7.78;;;;;;;;;;4971333;28;20026;-60
2021/06/09 04:12:35;;;;;;;8.52;7.70;;;;;;;;;;4987332;28;20033;-60
2021/06/09 04:15:01;;;;;;;7.97;7.25;;;;;;;;;;4988554;28;20326;-60
2021/06/09 04:17:27;;;;;;;8.85;8.02;;;;;;;;;;4985705;28;20034;-60
2021/06/09 04:19:53;;;;;;;8.02;6.97;;;;;;;;;;4989693;28;20382;-59
2021/06/09 04:22:19;;;;;;;7.95;7.15;;;;;;;;;;4971330;28;20022;-60
2021/06/09 04:24:44;;;;;;;8.40;7.60;;;;;;;;;;5000921;28;20072;-60
2021/06/09 04:27:19;;;;;;;8.55;7.80;;;;;;;;;;4980339;28;20482;-59
2021/06/09 04:29:44;;;;;;;8.85;7.45;;;;;;;;;;4969339;28;20097;-60
2021/06/09 04:32:09;;;;;;;8.23;7.43;;;;;;;;;;4967415;28;20467;-60
2021/06/09 04:34:54;;;;;;;8.20;7.40;;;;;;;;;;4983533;28;20569;-61
2021/06/09 04:37:22;;;;;;;9.20;7.55;;;;;;;;;;4986218;28;20066;-59
2021/06/09 04:39:47;;;;;;;8.00;7.30;;;;;;;;;;4988650;28;20026;-61
2021/06/09 04:42:13;;;;;;;7.95;6.82;;;;;;;;;;4987564;28;20687;-58
2021/06/09 04:44:39;;;;;;;8.75;7.43;;;;;;;;;;4988949;28;20038;-58
2021/06/09 04:47:04;;;;;;;9.07;7.72;;;;;;;;;;4985251;28;20022;-60
2021/06/09 04:49:37;;;;;;;8.70;7.30;;;;;;;;;;4987174;28;20113;-60
2021/06/09 04:52:03;;;;;;;8.43;7.63;;;;;;;;;;4988639;28;20398;-60
2021/06/09 04:54:29;;;;;;;8.70;7.90;;;;;;;;;;4988033;28;20023;-58
2021/06/09 04:56:54;;;;;;;8.38;7.57;;;;;;;;;;4992402;28;20044;-57
2021/06/09 04:59:19;;;;;;;7.85;7.15;;;;;;;;;;5008566;28;20065;-59
2021/06/09 05:01:45;;;;;;;8.23;7.43;;;;;;;;;;4990627;28;20038;-60
2021/06/09 05:04:10;;;;;;;8.30;7.32;;;;;;;;;;4981232;28;20030;-59
2021/06/09 05:06:35;;;;;;;8.38;7.57;;;;;;;;;;4972377;28;20678;-59
2021/06/09 05:09:02;;;;;;;8.20;7.38;;;;;;;;;;4981516;28;20037;-59
2021/06/09 05:12:02;;;;;;;7.68;6.97;;;;;;;;;;4990174;28;20108;-60
2021/06/09 05:14:28;;;;;;;8.25;7.10;;;;;;;;;;4986268;28;20037;-60
2021/06/09 05:16:54;;;;;;;8.27;7.30;;;;;;;;;;4973728;28;20061;-61
2021/06/09 05:19:22;;;;;;;8.10;7.30;;;;;;;;;;4969801;28;20462;-59
2021/06/09 05:21:49;;;;;;;8.60;7.55;;;;;;;;;;4970823;28;20049;-60
2021/06/09 05:24:15;;;;;;;8.10;7.18;;;;;;;;;;4984370;28;20075;-60
2021/06/09 05:26:40;;;;;;;8.10;7.30;;;;;;;;;;4969881;28;20422;-61
2021/06/09 05:29:07;;;;;;;8.50;7.10;;;;;;;;;;4970086;28;20022;-60
2021/06/09 05:31:33;;;;;;;9.50;7.90;;;;;;;;;;4987626;28;20062;-60
2021/06/09 05:33:59;;;;;;;9.60;7.50;;;;;;;;;;4980189;28;20023;-60
2021/06/09 05:36:25;;;;;;;8.05;7.25;;;;;;;;;;4967290;28;20085;-59
2021/06/09 05:38:50;;;;;;;9.38;8.48;;;;;;;;;;4982628;28;20159;-58
2021/06/09 05:41:16;;;;;;;7.80;7.00;;;;;;;;;;4995697;28;20036;-61
2021/06/09 05:43:42;;;;;;;7.93;6.97;;;;;;;;;;5007774;28;20465;-55
2021/06/09 05:46:08;;;;;;;9.45;7.45;;;;;;;;;;4996287;28;20026;-57
2021/06/09 05:48:40;;;;;;;10.85;8.00;;;;;;;;;;4967064;28;20174;-57
2021/06/09 05:51:08;;;;;;;9.13;7.40;;;;;;;;;;4968461;28;20503;-56
2021/06/09 05:53:33;;;;;;;11.95;8.25;;;;;;;;;;4987416;28;20092;-57
2021/06/09 05:55:59;;;;;;;9.68;7.80;;;;;;;;;;4985939;28;20482;-57
2021/06/09 05:58:24;;;;;;;9.45;8.38;;;;;;;;;;4987007;28;20057;-54
2021/06/09 06:00:52;;;;;;;12.15;8.35;;;;;;;;;;4981765;28;20097;-56
2021/06/09 06:03:17;;;;;;;12.23;8.63;;;;;;;;;;4959457;28;20710;-57
2021/06/09 06:05:43;;;;;;;10.45;8.27;;;;;;;;;;4984728;28;20030;-55
2021/06/09 06:08:08;;;;;;;11.07;8.00;;;;;;;;;;4983500;28;20050;-56
2021/06/09 06:10:34;;;;;;;11.70;8.50;;;;;;;;;;4986821;28;20542;-57
2021/06/09 06:12:59;;;;;;;12.90;7.95;;;;;;;;;;4970468;28;20128;-57
2021/06/09 06:15:24;;;;;;;11.20;7.78;;;;;;;;;;4985056;28;20084;-55
2021/06/09 06:17:50;;;;;;;10.48;8.20;;;;;;;;;;4969586;28;20018;-58
2021/06/09 06:20:17;;;;;;;12.10;8.32;;;;;;;;;;4976918;28;20030;-55
2021/06/09 06:22:43;;;;;;;10.82;7.70;;;;;;;;;;4973003;28;20109;-58
2021/06/09 06:25:09;;;;;;;8.52;7.70;;;;;;;;;;4989493;28;20029;-56
2021/06/09 06:27:34;;;;;;;10.35;8.13;;;;;;;;;;4989800;28;20069;-57
2021/06/09 06:30:00;;;;;;;10.50;8.00;;;;;;;;;;4990270;28;20064;-58
2021/06/09 06:32:25;;;;;;;9.82;8.30;;;;;;;;;;4986555;28;20038;-57
2021/06/09 06:34:51;;;;;;;9.77;7.35;;;;;;;;;;4988191;28;20379;-58
2021/06/09 06:37:17;;;;;;;11.57;8.45;;;;;;;;;;4989881;28;20030;-57
2021/06/09 06:39:43;;;;;;;11.13;8.15;;;;;;;;;;5011412;28;20116;-57
2021/06/09 06:42:08;;;;;;;9.90;8.10;;;;;;;;;;4993517;28;20761;-55
2021/06/09 06:44:34;;;;;;;10.00;7.63;;;;;;;;;;4994020;28;20030;-56
2021/06/09 06:47:00;;;;;;;10.27;7.95;;;;;;;;;;5000777;28;20033;-53
2021/06/09 06:49:27;;;;;;;10.60;8.30;;;;;;;;;;4977284;28;20482;-56
2021/06/09 06:51:52;;;;;;;9.40;8.00;;;;;;;;;;4977701;28;20029;-58
2021/06/09 06:54:19;;;;;;;10.35;7.95;;;;;;;;;;4960133;28;20050;-57
2021/06/09 06:56:44;;;;;;;9.60;8.20;;;;;;;;;;4990566;28;20034;-57
2021/06/09 06:59:10;;;;;;;10.15;7.80;;;;;;;;;;4973408;28;20065;-56
2021/06/09 07:01:35;;;;;;;9.27;7.85;;;;;;;;;;4987836;28;20445;-57
2021/06/09 07:04:01;;;;;;;8.93;8.02;;;;;;;;;;4982178;28;20030;-56
2021/06/09 07:06:27;;;;;;;8.82;8.02;;;;;;;;;;4990602;28;20327;-56
2021/06/09 07:08:52;;;;;;;10.20;8.65;;;;;;;;;;4984739;28;20494;-60
2021/06/09 07:11:18;;;;;;;10.18;8.65;;;;;;;;;;4970679;28;20395;-59
2021/06/09 07:13:44;;;;;;;11.00;8.68;;;;;;;;;;4970813;28;20022;-59
2021/06/09 07:16:10;;;;;;;10.40;8.38;;;;;;;;;;4975379;28;20121;-65
2021/06/09 07:18:41;;;;;;;9.23;8.05;;;;;;;;;;4952997;28;20023;-65
2021/06/09 07:21:06;;;;;;;8.35;7.53;;;;;;;;;;4985711;28;20026;-64
2021/06/09 07:23:32;;;;;;;9.55;7.82;;;;;;;;;;4957060;28;20084;-66
2021/06/09 07:25:57;;;;;;;8.45;7.20;;;;;;;;;;4989042;28;20033;-66
2021/06/09 07:28:22;;;;;;;9.45;7.32;;;;;;;;;;4972400;28;20029;-66
2021/06/09 07:30:50;;;;;;;9.55;7.53;;;;;;;;;;4956176;28;20113;-65
2021/06/09 07:33:15;;;;;;;9.85;7.72;;;;;;;;;;4972361;28;20036;-66
2021/06/09 07:35:40;;;;;;;7.95;7.03;;;;;;;;;;4972667;28;20407;-65
2021/06/09 07:38:27;;;;;;;8.98;6.95;;;;;;;;;;4972097;28;20026;-65
2021/06/09 07:41:00;;;;;;;9.88;7.22;;;;;;;;;;4973024;28;20033;-66
2021/06/09 07:43:29;;;;;;;9.80;6.88;;;;;;;;;;4971926;28;20113;-65
2021/06/09 07:45:55;;;;;;;9.18;7.03;;;;;;;;;;4988710;28;20058;-65
2021/06/09 07:48:21;;;;;;;7.18;6.45;;;;;;;;;;4971946;28;20042;-65
2021/06/09 07:50:51;;;;;;;8.10;6.47;;;;;;;;;;4970633;28;20029;-66
2021/06/09 07:53:17;;;;;;;7.60;6.40;;;;;;;;;;4979908;28;20026;-65
2021/06/09 07:55:43;;;;;;;10.00;6.50;;;;;;;;;;4989119;28;20028;-65
2021/06/09 07:58:08;;;;;;;7.90;6.10;;;;;;;;;;4955798;28;20029;-65
2021/06/09 08:00:34;;;;;;;10.02;6.35;;;;;;;;;;4972604;28;20038;-65
2021/06/09 08:02:59;;;;;;;8.80;6.10;;;;;;;;;;4988532;28;20077;-65
2021/06/09 08:05:25;;;;;;;7.70;6.13;;;;;;;;;;5006491;28;20241;-65
2021/06/09 08:07:51;;;;;;;9.40;6.00;;;;;;;;;;4978153;28;20117;-65
2021/06/09 08:10:16;;;;;;;7.40;6.00;;;;;;;;;;4963766;28;20030;-65
2021/06/09 08:12:42;;;;;;;6.97;5.30;;;;;;;;;;4968723;28;20038;-65
2021/06/09 08:15:07;;;;;;;8.68;5.60;;;;;;;;;;4977983;28;20547;-66
2021/06/09 08:17:33;;;;;;;8.27;5.97;;;;;;;;;;4951845;28;20031;-65
2021/06/09 08:19:58;;;;;;;6.68;5.60;;;;;;;;;;4936267;28;20031;-65
2021/06/09 08:22:24;;;;;;;8.88;5.88;;;;;;;;;;4953838;28;20080;-64
2021/06/09 08:24:49;;;;;;;7.28;6.18;;;;;;;;;;4989703;28;20110;-64
2021/06/09 08:27:15;;;;;;;7.22;5.63;;;;;;;;;;4982942;28;20507;-64
2021/06/09 08:29:40;;;;;;;7.15;5.07;;;;;;;;;;4969465;28;20364;-64
2021/06/09 08:32:06;;;;;;;8.27;6.35;;;;;;;;;;4984554;28;20109;-64
2021/06/09 08:34:32;;;;;;;7.85;5.97;;;;;;;;;;4972201;28;20514;-64
2021/06/09 08:36:57;;;;;;;7.95;5.45;;;;;;;;;;4987969;28;20461;-64
2021/06/09 08:39:25;;;;;;;7.45;5.82;;;;;;;;;;4988270;28;20525;-64
2021/06/09 08:41:52;;;;;;;7.30;5.45;;;;;;;;;;4988017;28;20022;-64
2021/06/09 08:44:18;;;;;;;7.60;5.30;;;;;;;;;;4988435;28;20080;-64
2021/06/09 08:46:43;;;;;;;7.13;5.57;;;;;;;;;;4974740;28;20035;-64
2021/06/09 08:49:08;;;;;;;7.05;5.25;;;;;;;;;;4969805;28;20035;-64
2021/06/09 08:51:34;;;;;;;8.35;5.65;;;;;;;;;;4952127;28;20475;-64
2021/06/09 08:54:00;;;;;;;5.78;5.22;;;;;;;;;;4975995;28;20031;-64
2021/06/09 08:56:26;;;;;;;9.00;5.88;;;;;;;;;;4977441;28;20041;-65
2021/06/09 08:58:51;;;;;;;6.70;5.10;;;;;;;;;;4987533;28;20018;-64
2021/06/09 09:01:17;;;;;;;6.70;5.35;;;;;;;;;;4971718;28;20109;-64
2021/06/09 09:03:44;;;;;;;7.57;5.55;;;;;;;;;;4971438;28;20041;-64
2021/06/09 09:06:09;;;;;;;6.65;5.20;;;;;;;;;;4971759;28;20034;-64
2021/06/09 09:08:35;;;;;;;6.82;5.57;;;;;;;;;;4970318;28;20423;-64
2021/06/09 09:11:00;;;;;;;6.45;5.07;;;;;;;;;;4971567;28;20030;-64
2021/06/09 09:13:26;;;;;;;6.68;5.15;;;;;;;;;;4987826;28;20062;-64
2021/06/09 09:15:52;;;;;;;5.68;4.85;;;;;;;;;;4989029;28;20099;-64
2021/06/09 09:18:17;;;;;;;7.65;5.63;;;;;;;;;;4970787;28;20026;-64
2021/06/09 09:20:45;;;;;;;6.00;5.40;;;;;;;;;;4988413;28;20041;-64
2021/06/09 09:23:36;;;;;;;6.18;5.20;;;;;;;;;;4989033;28;20026;-64
2021/06/09 09:26:24;;;;;;;5.82;5.22;;;;;;;;;;4986379;28;20398;-64
2021/06/09 09:28:49;;;;;;;5.90;5.07;;;;;;;;;;4971559;28;20029;-64
2021/06/09 09:31:17;;;;;;;5.72;4.88;;;;;;;;;;4987802;28;20038;-64
2021/06/09 09:33:43;;;;;;;6.57;5.22;;;;;;;;;;4988046;28;20034;-64
2021/06/09 09:36:19;;;;;;;6.53;5.18;;;;;;;;;;4987421;28;20030;-64
2021/06/09 09:38:45;;;;;;;5.70;4.78;;;;;;;;;;4987680;28;20018;-64
2021/06/09 09:41:14;;;;;;;7.70;5.57;;;;;;;;;;4987677;28;20030;-64
2021/06/09 09:43:43;;;;;;;6.32;4.63;;;;;;;;;;4974223;28;20026;-64
2021/06/09 09:46:09;;;;;;;9.18;5.32;;;;;;;;;;4994615;28;20030;-64
2021/06/09 09:48:38;;;;;;;6.32;4.90;;;;;;;;;;4968089;28;20023;-64
2021/06/09 09:51:04;;;;;;;5.65;5.10;;;;;;;;;;4970735;28;20029;-64
2021/06/09 09:53:32;;;;;;;7.57;5.00;;;;;;;;;;4979710;28;20260;-64
2021/06/09 09:56:03;;;;;;;5.55;4.72;;;;;;;;;;4988492;28;20088;-64
2021/06/09 09:58:29;;;;;;;6.10;4.82;;;;;;;;;;4987331;28;20049;-64
2021/06/09 10:01:11;;;;;;;5.00;4.50;;;;;;;;;;4987024;28;20035;-64
2021/06/09 10:03:37;;;;;;;7.90;4.88;;;;;;;;;;4958806;28;20054;-67
2021/06/09 10:06:16;;;;;;;7.28;4.90;;;;;;;;;;4967279;28;20122;-65
2021/06/09 10:08:41;;;;;;;6.07;4.90;;;;;;;;;;4990767;28;20018;-65
2021/06/09 10:11:13;;;;;;;5.20;4.40;;;;;;;;;;4991190;28;20031;-65
2021/06/09 10:13:38;;;;;;;5.72;4.65;;;;;;;;;;4974534;28;20037;-65
2021/06/09 10:16:20;;;;;;;6.93;4.93;;;;;;;;;;4983167;28;20030;-65
2021/06/09 10:18:53;;;;;;;5.80;4.75;;;;;;;;;;4940269;28;20031;-65
2021/06/09 10:21:18;;;;;;;4.88;4.40;;;;;;;;;;4940498;28;20031;-65
2021/06/09 10:23:44;;;;;;;6.10;4.57;;;;;;;;;;4975978;28;20039;-65
2021/06/09 10:26:16;;;;;;;6.97;4.68;;;;;;;;;;4980564;28;20058;-66
2021/06/09 10:29:10;;;;;;;6.40;4.50;;;;;;;;;;4988397;28;20482;-66
2021/06/09 10:31:42;;;;;;;5.72;4.45;;;;;;;;;;4968820;28;20054;-66
2021/06/09 10:34:07;;;;;;;5.93;4.57;;;;;;;;;;4975140;28;20026;-66
2021/06/09 10:36:34;;;;;;;6.13;4.38;;;;;;;;;;4989320;28;20382;-66
2021/06/09 10:38:59;;;;;;;5.50;4.45;;;;;;;;;;4990502;28;20037;-66
2021/06/09 10:41:25;;;;;;;4.63;4.10;;;;;;;;;;4980328;28;20177;-66
2021/06/09 10:43:52;;;;;;;6.93;4.65;;;;;;;;;;4958734;28;20063;-65
2021/06/09 10:46:20;;;;;;;5.18;4.50;;;;;;;;;;4970688;28;20056;-65
2021/06/09 10:48:46;;;;;;;5.47;4.85;;;;;;;;;;4985293;28;20566;-65
2021/06/09 10:51:11;;;;;;;5.40;4.30;;;;;;;;;;4945042;28;20198;-65
2021/06/09 10:53:37;;;;;;;5.07;4.30;;;;;;;;;;4964226;28;20065;-65
2021/06/09 10:56:03;;;;;;;5.57;4.13;;;;;;;;;;4971829;28;20559;-65
2021/06/09 10:58:28;;;;;;;4.97;4.00;;;;;;;;;;4965345;28;20057;-65
2021/06/09 11:00:55;;;;;;;4.95;4.15;;;;;;;;;;4982738;28;20030;-65
2021/06/09 11:03:21;;;;;;;5.78;4.18;;;;;;;;;;4948062;28;20517;-65
2021/06/09 11:05:47;;;;;;;5.80;4.55;;;;;;;;;;4954687;28;20040;-65
2021/06/09 11:08:12;;;;;;;4.85;3.97;;;;;;;;;;4965129;28;20027;-64
2021/06/09 11:10:45;;;;;;;6.18;4.10;;;;;;;;;;4945662;28;20030;-65
2021/06/09 11:13:25;;;;;;;5.90;4.50;;;;;;;;;;4957912;28;20387;-65
2021/06/09 11:16:02;;;;;;;5.25;4.10;;;;;;;;;;4972918;28;20057;-65
2021/06/09 11:18:33;;;;;;;5.60;4.22;;;;;;;;;;4940857;28;20027;-65
2021/06/09 11:21:02;;;;;;;5.10;4.47;;;;;;;;;;4965927;28;20077;-66
2021/06/09 11:23:29;;;;;;;6.15;4.65;;;;;;;;;;4985563;28;20493;-65
2021/06/09 11:25:54;;;;;;;5.00;4.22;;;;;;;;;;4964032;28;20097;-66
2021/06/09 11:28:32;;;;;;;5.20;4.20;;;;;;;;;;4972750;28;20110;-66
2021/06/09 11:31:02;;;;;;;5.10;4.60;;;;;;;;;;4970245;28;20033;-65
2021/06/09 11:33:39;;;;;;;5.60;4.07;;;;;;;;;;4983346;28;20031;-66
2021/06/09 11:36:06;;;;;;;5.03;4.03;;;;;;;;;;4969901;28;20049;-65
2021/06/09 11:38:40;;;;;;;6.97;4.40;;;;;;;;;;4972622;28;20031;-65
2021/06/09 11:41:08;;;;;;;5.03;4.53;;;;;;;;;;4973276;28;20030;-65
2021/06/09 11:43:43;;;;;;;5.75;4.22;;;;;;;;;;4989516;28;20030;-66
2021/06/09 11:46:21;;;;;;;6.07;4.40;;;;;;;;;;4990580;28;20080;-66
2021/06/09 11:48:56;;;;;;;4.60;3.90;;;;;;;;;;4974905;28;20023;-65
2021/06/09 11:51:26;;;;;;;6.22;4.47;;;;;;;;;;4990063;28;20029;-65
2021/06/09 11:53:56;;;;;;;5.40;4.30;;;;;;;;;;4978217;28;20022;-65
2021/06/09 11:56:25;;;;;;;6.18;4.13;;;;;;;;;;4991657;28;20279;-65
2021/06/09 11:58:55;;;;;;;6.82;4.10;;;;;;;;;;5009678;28;20022;-66
2021/06/09 12:01:21;;;;;;;4.50;3.88;;;;;;;;;;4975285;28;20460;-65
2021/06/09 12:04:19;;;;;;;4.93;3.70;;;;;;;;;;4976924;28;20096;-66
2021/06/09 12:07:06;;;;;;;6.00;3.95;;;;;;;;;;4961360;28;20069;-66
2021/06/09 12:09:37;;;;;;;6.20;3.90;;;;;;;;;;4990045;28;20026;-66
2021/06/09 12:12:04;;;;;;;;;;;;;;;;;;4990753;28;20109;-66
2021/06/09 12:14:37;;;;;;;5.60;4.13;;;;;;;;;;4972326;28;19914;-66
2021/06/09 12:17:13;;;;;;;6.10;4.13;;;;;;;;;;4985195;28;20056;-66
2021/06/09 12:19:40;;;;;;;6.18;4.20;;;;;;;;;;4989407;28;20114;-66
2021/06/09 12:22:08;;;;;;;5.13;3.85;;;;;;;;;;4986429;28;20030;-69
2021/06/09 12:24:34;;;;;;;6.30;4.28;;;;;;;;;;4987836;28;20076;-65
2021/06/09 12:27:10;;;;;;;5.85;4.20;;;;;;;;;;4986509;28;20022;-67
2021/06/09 12:29:40;;;;;;;6.43;4.40;;;;;;;;;;4971894;28;20070;-66
2021/06/09 12:32:26;;;;;;;5.78;3.75;;;;;;;;;;4988797;28;20493;-66
2021/06/09 12:34:57;;;;;;;5.03;3.90;;;;;;;;;;4972564;28;20062;-67
2021/06/09 12:37:23;;;;;;;5.53;4.45;;;;;;;;;;4970272;28;20045;-67
2021/06/09 12:40:17;;;;;;;5.95;4.40;;;;;;;;;;4987899;28;20468;-70
2021/06/09 12:42:51;;;;;;;5.63;4.05;;;;;;;;;;4970506;28;20565;-70
2021/06/09 12:45:17;;;;;;;5.35;3.95;;;;;;;;;;4983032;28;20042;-66
2021/06/09 12:47:43;;;;;;;4.15;3.53;;;;;;;;;;4971375;28;20022;-68
2021/06/09 12:50:17;;;;;;;4.53;3.70;;;;;;;;;;4988697;28;20026;-67
2021/06/09 12:52:44;;;;;;;4.47;3.95;;;;;;;;;;4987403;28;20023;-67
2021/06/09 12:55:15;;;;;;;7.03;4.40;;;;;;;;;;4987938;28;20038;-67
2021/06/09 12:57:41;;;;;;;4.78;4.05;;;;;;;;;;4970347;28;20015;-67
2021/06/09 13:00:25;;;;;;;5.28;3.88;;;;;;;;;;4986534;28;20073;-66
2021/06/09 13:02:51;;;;;;;5.50;3.90;;;;;;;;;;4984326;28;20405;-61
2021/06/09 13:05:17;;;;;;;9.95;4.43;;;;;;;;;;4987302;28;20022;-65
2021/06/09 13:07:42;;;;;;;10.90;4.55;;;;;;;;;;4989092;23;20038;-60
2021/06/09 13:10:08;;;;;;;9.82;5.20;;;;;;;;;;4995259;28;20036;-60
2021/06/09 13:12:34;;;;;;;8.38;4.80;;;;;;;;;;5007177;28;20026;-61
2021/06/09 13:14:59;;;;;;;7.00;4.28;;;;;;;;;;5008459;28;20113;-59
2021/06/09 13:17:24;;;;;;;8.45;4.38;;;;;;;;;;5008220;28;20077;-61
2021/06/09 13:19:50;;;;;;;10.43;4.80;;;;;;;;;;5007438;28;20096;-61
2021/06/09 13:22:18;;;;;;;7.35;4.22;;;;;;;;;;5007959;28;20026;-61
2021/06/09 13:24:43;;;;;;;7.45;4.55;;;;;;;;;;5008279;28;20048;-60
2021/06/09 13:27:10;;;;;;;7.40;4.32;;;;;;;;;;5006366;28;20482;-60
2021/06/09 13:29:54;;;;;;;7.30;4.80;;;;;;;;;;5007582;28;20064;-60
2021/06/09 13:32:30;;;;;;;7.25;4.30;;;;;;;;;;5006766;28;20379;-60
2021/06/09 13:35:04;;;;;;;6.20;4.22;;;;;;;;;;5011176;28;20416;-60
2021/06/09 13:37:37;;;;;;;6.00;4.05;;;;;;;;;;5010435;28;20140;-57
2021/06/09 13:40:07;;;;;;;6.90;4.28;;;;;;;;;;4993873;28;20029;-59
2021/06/09 13:42:33;;;;;;;6.50;4.03;;;;;;;;;;5005229;28;20486;-59
2021/06/09 13:45:26;;;;;;;5.63;4.15;;;;;;;;;;5009377;28;20029;-60
2021/06/09 13:48:21;;;;;;;7.10;5.45;;;;;;;;;;5003993;28;20528;-60
2021/06/09 13:50:55;;;;;;;6.45;4.45;;;;;;;;;;4994382;28;20425;-59
2021/06/09 13:53:21;;;;;;;19.08;5.78;;;;;;;;;;5009964;28;20053;-59
2021/06/09 13:55:46;;;;;;;8.60;5.38;;;;;;;;;;4981210;28;20056;-58
2021/06/09 13:58:31;;;;;;;11.07;5.35;;;;;;;;;;4997417;28;20038;-60
2021/06/09 14:00:59;;;;;;;9.48;4.85;;;;;;;;;;4997983;28;20030;-60
2021/06/09 14:03:29;;;;;;;11.32;5.03;;;;;;;;;;5001098;28;20030;-59
2021/06/09 14:05:54;;;;;;;9.65;5.00;;;;;;;;;;5000728;28;20022;-60
2021/06/09 14:08:20;;;;;;;10.00;5.43;;;;;;;;;;4999724;28;20105;-59
2021/06/09 14:10:54;;;;;;;8.75;5.30;;;;;;;;;;4999829;28;20105;-56
2021/06/09 14:13:22;;;;;;;9.02;4.93;;;;;;;;;;4997974;28;20046;-57
2021/06/09 14:15:55;;;;;;;10.63;4.70;;;;;;;;;;5000949;28;20033;-59
2021/06/09 14:18:21;;;;;;;10.48;5.68;;;;;;;;;;4994974;28;20061;-58
2021/06/09 14:20:49;;;;;;;9.02;5.43;;;;;;;;;;4999628;28;20036;-57
2021/06/09 14:23:25;;;;;;;10.65;6.28;;;;;;;;;;4998913;28;20026;-58
2021/06/09 14:25:56;;;;;;;10.50;5.90;;;;;;;;;;4997908;28;20028;-59
2021/06/09 14:28:32;;;;;;;8.65;6.45;;;;;;;;;;4964591;28;20025;-59
2021/06/09 14:31:02;;;;;;;11.65;6.25;;;;;;;;;;4998826;28;20105;-58
2021/06/09 14:33:37;;;;;;;10.55;6.32;;;;;;;;;;5000080;28;20363;-58
2021/06/09 14:38:39;;;;;;;15.48;6.88;;;;;;;;;;4997831;28;20034;-60
2021/06/09 14:41:29;;;;;;;12.43;6.90;;;;;;;;;;4980334;28;20743;-59
2021/06/09 14:44:05;;;;;;;14.10;6.95;;;;;;;;;;4999878;28;20056;-60
2021/06/09 14:46:43;;;;;;;13.50;6.43;;;;;;;;;;4994681;28;20060;-59
2021/06/09 14:49:27;;;;;;;12.60;6.40;;;;;;;;;;4999387;28;20029;-58
2021/06/09 14:51:52;;;;;;;10.90;6.65;;;;;;;;;;4996984;28;20821;-57
2021/06/09 14:54:18;;;;;;;9.50;6.40;;;;;;;;;;4998716;28;20026;-59